Time,TemperatureF,DewpointF,PressureIn,WindDirection,WindDirectionDegrees,WindSpeedMPH,WindSpeedGustMPH,Humidity,HourlyPrecipIn,Conditions,Clouds,dailyrainin,SoftwareType,DateUTC
2013-04-21 00:04:00,32.0,21.2,30.35,ESE,103,0.0,2.0,64,0.00,,,0.28,Wunderground v.1.15,2013-04-21 05:04:00,
2013-04-21 00:09:00,32.5,21.7,30.35,East,93,2.0,2.0,64,0.00,,,0.28,Wunderground v.1.15,2013-04-21 05:09:00,
2013-04-21 00:14:00,32.8,21.6,30.35,East,93,0.0,6.0,63,0.00,,,0.28,Wunderground v.1.15,2013-04-21 05:14:00,
2013-04-21 00:20:00,33.0,21.4,30.35,East,93,0.0,6.0,62,0.00,,,0.28,Wunderground v.1.15,2013-04-21 05:20:00,
2013-04-21 00:25:00,33.1,21.1,30.35,ESE,111,0.0,5.0,61,0.00,,,0.28,Wunderground v.1.15,2013-04-21 05:25:00,
2013-04-21 00:31:00,33.3,21.3,30.35,ESE,123,6.0,6.0,61,0.00,,,0.28,Wunderground v.1.15,2013-04-21 05:31:00,
2013-04-21 00:37:00,33.5,21.1,30.35,SE,142,4.0,6.0,60,0.00,,,0.28,Wunderground v.1.15,2013-04-21 05:37:00,
2013-04-21 00:42:00,33.7,21.3,30.35,ESE,113,0.0,3.0,60,0.00,,,0.28,Wunderground v.1.15,2013-04-21 05:42:00,
2013-04-21 00:47:00,33.8,21.0,30.35,SE,138,0.0,6.0,59,0.00,,,0.28,Wunderground v.1.15,2013-04-21 05:47:00,
2013-04-21 00:53:00,33.9,21.5,30.35,SE,144,0.0,2.0,60,0.00,,,0.28,Wunderground v.1.15,2013-04-21 05:53:00,
2013-04-21 00:59:00,33.9,21.9,30.35,ESE,120,2.0,8.0,61,0.00,,,0.28,Wunderground v.1.15,2013-04-21 05:59:00,
2013-04-21 01:04:00,33.9,21.9,30.35,ESE,122,0.0,4.0,61,0.00,,,0.28,Wunderground v.1.15,2013-04-21 06:04:00,
2013-04-21 01:10:00,34.0,22.3,30.35,SE,137,0.0,6.0,62,0.00,,,0.28,Wunderground v.1.15,2013-04-21 06:10:00,
2013-04-21 01:15:00,34.0,22.3,30.35,SE,137,0.0,1.0,62,0.00,,,0.28,Wunderground v.1.15,2013-04-21 06:15:00,
2013-04-21 01:20:00,33.9,22.6,30.35,SE,137,0.0,1.0,63,0.00,,,0.28,Wunderground v.1.15,2013-04-21 06:20:00,
2013-04-21 01:26:00,34.1,21.7,30.35,SE,138,2.0,4.0,60,0.00,,,0.28,Wunderground v.1.15,2013-04-21 06:26:00,
2013-04-21 01:31:00,34.2,21.7,30.35,SE,138,0.0,1.0,60,0.00,,,0.28,Wunderground v.1.15,2013-04-21 06:31:00,
2013-04-21 01:37:00,34.3,22.2,30.35,SE,138,0.0,4.0,61,0.00,,,0.28,Wunderground v.1.15,2013-04-21 06:37:00,
2013-04-21 01:42:00,34.3,22.2,30.35,SE,138,0.0,0.0,61,0.00,,,0.28,Wunderground v.1.15,2013-04-21 06:42:00,
2013-04-21 01:48:00,34.2,22.1,30.36,SSE,163,4.0,5.0,61,0.00,,,0.28,Wunderground v.1.15,2013-04-21 06:48:00,
2013-04-21 01:54:00,34.2,22.5,30.35,SSE,163,0.0,1.0,62,0.00,,,0.28,Wunderground v.1.15,2013-04-21 06:54:00,
2013-04-21 02:00:00,34.2,22.9,30.35,SSE,163,0.0,4.0,63,0.00,,,0.28,Wunderground v.1.15,2013-04-21 07:00:00,
2013-04-21 02:05:00,34.2,23.3,30.35,South,180,6.0,6.0,64,0.00,,,0.28,Wunderground v.1.15,2013-04-21 07:05:00,
2013-04-21 02:10:00,34.5,23.6,30.35,South,170,2.0,7.0,64,0.00,,,0.28,Wunderground v.1.15,2013-04-21 07:10:00,
2013-04-21 02:16:00,34.7,23.8,30.35,SSE,159,5.0,9.0,64,0.00,,,0.28,Wunderground v.1.15,2013-04-21 07:16:00,
2013-04-21 02:21:00,34.8,25.0,30.35,South,184,4.0,9.0,67,0.00,,,0.28,Wunderground v.1.15,2013-04-21 07:21:00,
2013-04-21 02:26:00,34.7,26.3,30.35,South,188,2.0,6.0,71,0.00,,,0.28,Wunderground v.1.15,2013-04-21 07:26:00,
2013-04-21 02:31:00,34.4,27.0,30.35,South,170,7.0,8.0,74,0.00,,,0.00,Wunderground v.1.15,2013-04-21 07:31:00,
2013-04-21 02:36:00,34.2,27.4,30.35,South,169,0.0,6.0,76,0.00,,,0.00,Wunderground v.1.15,2013-04-21 07:36:00,
2013-04-21 02:41:00,34.0,27.9,30.34,SSE,160,2.0,3.0,78,0.00,,,0.00,Wunderground v.1.15,2013-04-21 07:41:00,
2013-04-21 02:47:00,33.9,28.1,30.34,SSE,159,0.0,4.0,79,0.00,,,0.00,Wunderground v.1.15,2013-04-21 07:47:00,
2013-04-21 02:52:00,33.9,28.4,30.34,SSE,159,0.0,0.0,80,0.00,,,0.00,Wunderground v.1.15,2013-04-21 07:52:00,
2013-04-21 02:57:00,33.8,28.6,30.34,SSE,157,0.0,4.0,81,0.00,,,0.00,Wunderground v.1.15,2013-04-21 07:57:00,
2013-04-21 03:02:00,33.7,28.5,30.34,SSE,157,0.0,0.0,81,0.00,,,0.00,Wunderground v.1.15,2013-04-21 08:02:00,
2013-04-21 03:07:00,33.7,28.5,30.34,SSE,157,0.0,0.0,81,0.00,,,0.00,Wunderground v.1.15,2013-04-21 08:07:00,
2013-04-21 03:12:00,33.6,28.4,30.33,SSE,157,0.0,0.0,81,0.00,,,0.00,Wunderground v.1.15,2013-04-21 08:12:00,
2013-04-21 03:17:00,33.6,28.7,30.33,ESE,111,0.0,4.0,82,0.00,,,0.00,Wunderground v.1.15,2013-04-21 08:17:00,
2013-04-21 03:22:00,33.7,29.1,30.33,SE,126,0.0,5.0,83,0.00,,,0.00,Wunderground v.1.15,2013-04-21 08:22:00,
2013-04-21 03:28:00,33.7,29.4,30.33,SE,144,2.0,6.0,84,0.00,,,0.00,Wunderground v.1.15,2013-04-21 08:28:00,
2013-04-21 03:33:00,33.7,30.0,30.33,SE,136,4.0,6.0,86,0.00,,,0.00,Wunderground v.1.15,2013-04-21 08:33:00,
2013-04-21 03:38:00,33.7,30.0,30.33,SE,136,0.0,6.0,86,0.00,,,0.00,Wunderground v.1.15,2013-04-21 08:38:00,
2013-04-21 03:43:00,33.7,30.2,30.33,ESE,103,4.0,4.0,87,0.00,,,0.00,Wunderground v.1.15,2013-04-21 08:43:00,
2013-04-21 03:48:00,33.6,30.1,30.32,East,90,0.0,6.0,87,0.00,,,0.00,Wunderground v.1.15,2013-04-21 08:48:00,
2013-04-21 03:53:00,33.6,30.1,30.32,East,90,1.0,4.0,87,0.00,,,0.00,Wunderground v.1.15,2013-04-21 08:53:00,
2013-04-21 03:59:00,33.6,30.1,30.32,East,96,0.0,6.0,87,0.00,,,0.00,Wunderground v.1.15,2013-04-21 08:59:00,
2013-04-21 04:04:00,33.6,30.4,30.32,East,96,0.0,0.0,88,0.00,,,0.00,Wunderground v.1.15,2013-04-21 09:04:00,
2013-04-21 04:09:00,33.6,30.4,30.32,SE,137,0.0,6.0,88,0.00,,,0.00,Wunderground v.1.15,2013-04-21 09:09:00,
2013-04-21 04:14:00,33.6,30.4,30.32,SE,137,0.0,4.0,88,0.00,,,0.00,Wunderground v.1.15,2013-04-21 09:14:00,
2013-04-21 04:19:00,33.6,30.7,30.32,ESE,123,0.0,6.0,89,0.00,,,0.00,Wunderground v.1.15,2013-04-21 09:19:00,
2013-04-21 04:24:00,33.6,30.7,30.32,ESE,120,0.0,7.0,89,0.00,,,0.00,Wunderground v.1.15,2013-04-21 09:24:00,
2013-04-21 04:29:00,33.6,31.3,30.32,SE,130,4.0,7.0,91,0.00,,,0.00,Wunderground v.1.15,2013-04-21 09:29:00,
2013-04-21 04:34:00,33.5,31.2,30.31,SE,136,2.0,5.0,91,0.00,,,0.00,Wunderground v.1.15,2013-04-21 09:34:00,
2013-04-21 04:39:00,33.5,31.4,30.31,ESE,109,0.0,7.0,92,0.00,,,0.00,Wunderground v.1.15,2013-04-21 09:39:00,
2013-04-21 04:45:00,33.6,31.5,30.31,ESE,117,0.0,1.0,92,0.00,,,0.00,Wunderground v.1.15,2013-04-21 09:45:00,
2013-04-21 04:50:00,33.6,31.8,30.31,ESE,119,6.0,7.0,93,0.00,,,0.00,Wunderground v.1.15,2013-04-21 09:50:00,
2013-04-21 04:55:00,33.6,31.8,30.31,SE,126,4.0,7.0,93,0.00,,,0.00,Wunderground v.1.15,2013-04-21 09:55:00,
2013-04-21 05:00:00,33.6,31.8,30.31,East,94,4.0,8.0,93,0.00,,,0.00,Wunderground v.1.15,2013-04-21 10:00:00,
2013-04-21 05:05:00,33.5,32.0,30.30,ESE,113,0.0,6.0,94,0.00,,,0.00,Wunderground v.1.15,2013-04-21 10:05:00,
2013-04-21 05:10:00,33.5,32.0,30.30,ESE,112,2.0,6.0,94,0.00,,,0.00,Wunderground v.1.15,2013-04-21 10:10:00,
2013-04-21 05:15:00,33.5,32.0,30.30,East,99,4.0,9.0,94,0.00,,,0.00,Wunderground v.1.15,2013-04-21 10:15:00,
2013-04-21 05:20:00,33.4,31.9,30.30,ESE,109,4.0,9.0,94,0.00,,,0.00,Wunderground v.1.15,2013-04-21 10:20:00,
2013-04-21 05:25:00,33.3,31.8,30.30,ESE,115,2.0,6.0,94,0.00,,,0.00,Wunderground v.1.15,2013-04-21 10:25:00,
2013-04-21 05:30:00,33.2,31.7,30.30,ESE,108,2.0,8.0,94,0.00,,,0.00,Wunderground v.1.15,2013-04-21 10:30:00,
2013-04-21 05:36:00,33.1,31.6,30.29,ESE,111,7.0,7.0,94,0.00,,,0.00,Wunderground v.1.15,2013-04-21 10:36:00,
2013-04-21 05:41:00,33.0,31.5,30.29,SE,134,2.0,8.0,94,0.00,,,0.00,Wunderground v.1.15,2013-04-21 10:41:00,
2013-04-21 05:46:00,33.1,31.6,30.29,East,92,4.0,5.0,94,0.00,,,0.00,Wunderground v.1.15,2013-04-21 10:46:00,
2013-04-21 05:51:00,33.1,31.8,30.29,ESE,111,0.0,5.0,95,0.00,,,0.00,Wunderground v.1.15,2013-04-21 10:51:00,
2013-04-21 05:56:00,33.2,31.9,30.28,SE,131,8.0,8.0,95,0.00,,,0.00,Wunderground v.1.15,2013-04-21 10:56:00,
2013-04-21 06:01:00,33.2,31.9,30.28,SSE,157,5.0,6.0,95,0.00,,,0.00,Wunderground v.1.15,2013-04-21 11:01:00,
2013-04-21 06:06:00,33.3,32.0,30.28,ESE,102,11.0,12.0,95,0.00,,,0.00,Wunderground v.1.15,2013-04-21 11:06:00,
2013-04-21 06:12:00,33.3,32.0,30.28,ESE,120,8.0,8.0,95,0.00,,,0.00,Wunderground v.1.15,2013-04-21 11:12:00,
2013-04-21 06:17:00,33.3,32.0,30.28,SSE,151,4.0,9.0,95,0.00,,,0.00,Wunderground v.1.15,2013-04-21 11:17:00,
2013-04-21 06:22:00,33.3,32.0,30.28,ESE,122,4.0,5.0,95,0.00,,,0.00,Wunderground v.1.15,2013-04-21 11:22:00,
2013-04-21 06:27:00,33.4,32.1,30.27,ESE,110,2.0,10.0,95,0.00,,,0.00,Wunderground v.1.15,2013-04-21 11:27:00,
2013-04-21 06:32:00,33.4,32.1,30.28,East,96,6.0,8.0,95,0.00,,,0.00,Wunderground v.1.15,2013-04-21 11:32:00,
2013-04-21 06:37:00,33.5,32.2,30.27,ENE,57,4.0,11.0,95,0.00,,,0.00,Wunderground v.1.15,2013-04-21 11:37:00,
2013-04-21 06:42:00,33.6,32.3,30.28,SE,146,6.0,7.0,95,0.00,,,0.00,Wunderground v.1.15,2013-04-21 11:42:00,
2013-04-21 06:47:00,33.7,32.4,30.28,South,175,5.0,10.0,95,0.00,,,0.00,Wunderground v.1.15,2013-04-21 11:47:00,
2013-04-21 06:52:00,33.8,32.5,30.28,ESE,105,2.0,11.0,95,0.00,,,0.00,Wunderground v.1.15,2013-04-21 11:52:00,
2013-04-21 06:57:00,33.9,32.6,30.28,ESE,111,2.0,11.0,95,0.00,,,0.00,Wunderground v.1.15,2013-04-21 11:57:00,
2013-04-21 07:02:00,34.0,32.7,30.28,East,101,6.0,10.0,95,0.00,,,0.00,Wunderground v.1.15,2013-04-21 12:02:00,
2013-04-21 07:07:00,34.1,32.8,30.28,SE,138,7.0,14.0,95,0.00,,,0.00,Wunderground v.1.15,2013-04-21 12:07:00,
2013-04-21 07:13:00,34.3,33.0,30.28,ESE,117,4.0,8.0,95,0.00,,,0.00,Wunderground v.1.15,2013-04-21 12:13:00,
2013-04-21 07:18:00,34.4,33.1,30.27,SSE,155,9.0,9.0,95,0.00,,,0.00,Wunderground v.1.15,2013-04-21 12:18:00,
2013-04-21 07:23:00,34.6,33.3,30.27,SSE,155,5.0,12.0,95,0.00,,,0.00,Wunderground v.1.15,2013-04-21 12:23:00,
2013-04-21 07:28:00,34.7,33.4,30.27,ESE,120,6.0,15.0,95,0.00,,,0.00,Wunderground v.1.15,2013-04-21 12:28:00,
2013-04-21 07:33:00,34.9,33.6,30.27,SE,126,9.0,13.0,95,0.00,,,0.00,Wunderground v.1.15,2013-04-21 12:33:00,
2013-04-21 07:38:00,35.1,33.5,30.27,East,80,5.0,13.0,94,0.00,,,0.00,Wunderground v.1.15,2013-04-21 12:38:00,
2013-04-21 07:44:00,35.2,33.6,30.27,East,91,5.0,7.0,94,0.00,,,0.00,Wunderground v.1.15,2013-04-21 12:44:00,
2013-04-21 07:49:00,35.4,33.8,30.26,SE,127,12.0,14.0,94,0.00,,,0.00,Wunderground v.1.15,2013-04-21 12:49:00,
2013-04-21 07:54:00,35.5,33.7,30.26,SE,142,5.0,8.0,93,0.00,,,0.00,Wunderground v.1.15,2013-04-21 12:54:00,
2013-04-21 07:59:00,35.6,33.8,30.26,ENE,66,7.0,14.0,93,0.00,,,0.00,Wunderground v.1.15,2013-04-21 12:59:00,
2013-04-21 08:04:00,35.8,33.7,30.27,SSE,159,5.0,12.0,92,0.00,,,0.00,Wunderground v.1.15,2013-04-21 13:04:00,
2013-04-21 08:09:00,35.9,33.8,30.26,SE,124,1.0,12.0,92,0.00,,,0.00,Wunderground v.1.15,2013-04-21 13:09:00,
2013-04-21 08:14:00,36.1,33.7,30.26,SSE,157,7.0,14.0,91,0.00,,,0.00,Wunderground v.1.15,2013-04-21 13:14:00,
2013-04-21 08:19:00,36.1,33.7,30.26,ESE,111,6.0,14.0,91,0.00,,,0.00,Wunderground v.1.15,2013-04-21 13:19:00,
2013-04-21 08:24:00,36.3,33.9,30.26,ESE,117,9.0,12.0,91,0.00,,,0.00,Wunderground v.1.15,2013-04-21 13:24:00,
2013-04-21 08:30:00,36.4,33.7,30.25,ESE,106,14.0,14.0,90,0.00,,,0.00,Wunderground v.1.15,2013-04-21 13:30:00,
2013-04-21 08:35:00,36.6,33.9,30.25,ESE,109,4.0,13.0,90,0.00,,,0.00,Wunderground v.1.15,2013-04-21 13:35:00,
2013-04-21 08:40:00,36.6,33.9,30.25,SSE,153,4.0,14.0,90,0.00,,,0.01,Wunderground v.1.15,2013-04-21 13:40:00,
2013-04-21 08:45:00,36.8,34.1,30.25,ESE,109,4.0,12.0,90,0.00,,,0.01,Wunderground v.1.15,2013-04-21 13:45:00,
2013-04-21 08:50:00,36.9,34.2,30.25,SSE,151,9.0,16.0,90,0.00,,,0.01,Wunderground v.1.15,2013-04-21 13:50:00,
2013-04-21 08:55:00,36.9,34.2,30.25,SE,131,5.0,17.0,90,0.00,,,0.01,Wunderground v.1.15,2013-04-21 13:55:00,
2013-04-21 09:00:00,36.9,34.2,30.25,SE,144,9.0,18.0,90,0.00,,,0.01,Wunderground v.1.15,2013-04-21 14:00:00,
2013-04-21 09:06:00,36.9,34.2,30.25,SSE,157,9.0,13.0,90,0.00,,,0.01,Wunderground v.1.15,2013-04-21 14:06:00,
2013-04-21 09:11:00,36.9,34.2,30.24,SE,124,8.0,16.0,90,0.00,,,0.01,Wunderground v.1.15,2013-04-21 14:11:00,
2013-04-21 09:16:00,36.9,34.5,30.24,ESE,123,5.0,12.0,91,0.00,,,0.01,Wunderground v.1.15,2013-04-21 14:16:00,
2013-04-21 09:21:00,36.9,34.5,30.24,SSE,150,9.0,12.0,91,0.00,,,0.01,Wunderground v.1.15,2013-04-21 14:21:00,
2013-04-21 09:26:00,37.1,34.7,30.24,SE,124,9.0,13.0,91,0.00,,,0.01,Wunderground v.1.15,2013-04-21 14:26:00,
2013-04-21 09:32:00,37.2,34.5,30.23,SE,133,4.0,7.0,90,0.00,,,0.01,Wunderground v.1.15,2013-04-21 14:32:00,
2013-04-21 09:37:00,37.3,34.6,30.23,SSE,152,8.0,16.0,90,0.00,,,0.01,Wunderground v.1.15,2013-04-21 14:37:00,
2013-04-21 09:42:00,37.4,34.7,30.23,SSE,167,7.0,7.0,90,0.00,,,0.01,Wunderground v.1.15,2013-04-21 14:42:00,
2013-04-21 09:47:00,37.5,34.8,30.23,SE,146,5.0,12.0,90,0.00,,,0.01,Wunderground v.1.15,2013-04-21 14:47:00,
2013-04-21 09:52:00,37.5,34.8,30.23,SE,144,6.0,13.0,90,0.00,,,0.01,Wunderground v.1.15,2013-04-21 14:52:00,
2013-04-21 09:57:00,37.7,35.0,30.23,SSE,154,5.0,13.0,90,0.00,,,0.01,Wunderground v.1.15,2013-04-21 14:57:00,
2013-04-21 10:02:00,37.9,35.2,30.23,ESE,107,12.0,12.0,90,0.00,,,0.01,Wunderground v.1.15,2013-04-21 15:02:00,
2013-04-21 10:07:00,38.2,35.2,30.22,SE,131,11.0,13.0,89,0.00,,,0.01,Wunderground v.1.15,2013-04-21 15:07:00,
2013-04-21 10:12:00,38.4,35.4,30.23,SSE,153,5.0,11.0,89,0.00,,,0.01,Wunderground v.1.15,2013-04-21 15:12:00,
2013-04-21 10:17:00,38.6,35.6,30.23,ESE,103,12.0,13.0,89,0.00,,,0.01,Wunderground v.1.15,2013-04-21 15:17:00,
2013-04-21 10:22:00,38.8,35.6,30.22,SE,130,4.0,11.0,88,0.00,,,0.01,Wunderground v.1.15,2013-04-21 15:22:00,
2013-04-21 10:28:00,38.9,35.6,30.23,ESE,104,6.0,18.0,88,0.00,,,0.01,Wunderground v.1.15,2013-04-21 15:28:00,
2013-04-21 10:33:00,38.9,35.6,30.23,ESE,111,9.0,13.0,88,0.00,,,0.01,Wunderground v.1.15,2013-04-21 15:33:00,
2013-04-21 10:38:00,39.1,35.8,30.22,East,101,11.0,13.0,88,0.00,,,0.01,Wunderground v.1.15,2013-04-21 15:38:00,
2013-04-21 10:43:00,39.2,35.9,30.22,SE,146,10.0,15.0,88,0.00,,,0.01,Wunderground v.1.15,2013-04-21 15:43:00,
2013-04-21 10:48:00,39.5,36.0,30.22,South,170,15.0,20.0,87,0.00,,,0.01,Wunderground v.1.15,2013-04-21 15:48:00,
2013-04-21 10:53:00,39.6,36.0,30.22,ESE,107,11.0,17.0,87,0.00,,,0.01,Wunderground v.1.15,2013-04-21 15:53:00,
2013-04-21 10:58:00,39.8,36.0,30.22,South,179,23.0,23.0,86,0.00,,,0.01,Wunderground v.1.15,2013-04-21 15:58:00,
2013-04-21 11:03:00,40.0,36.2,30.21,SE,140,6.0,10.0,86,0.00,,,0.01,Wunderground v.1.15,2013-04-21 16:03:00,
2013-04-21 11:08:00,40.4,36.2,30.21,ESE,123,11.0,19.0,85,0.00,,,0.01,Wunderground v.1.15,2013-04-21 16:08:00,
2013-04-21 11:13:00,40.5,36.3,30.20,East,94,8.0,16.0,85,0.00,,,0.01,Wunderground v.1.15,2013-04-21 16:13:00,
2013-04-21 11:18:00,40.5,36.3,30.20,ESE,105,9.0,18.0,85,0.00,,,0.01,Wunderground v.1.15,2013-04-21 16:18:00,
2013-04-21 11:23:00,40.7,36.2,30.20,SE,128,8.0,21.0,84,0.00,,,0.01,Wunderground v.1.15,2013-04-21 16:23:00,
2013-04-21 11:29:00,40.9,36.4,30.20,ESE,113,14.0,23.0,84,0.00,,,0.01,Wunderground v.1.15,2013-04-21 16:29:00,
2013-04-21 11:34:00,41.0,36.5,30.20,ESE,123,16.0,16.0,84,0.00,,,0.01,Wunderground v.1.15,2013-04-21 16:34:00,
2013-04-21 11:39:00,41.3,36.5,30.19,SE,146,9.0,16.0,83,0.00,,,0.01,Wunderground v.1.15,2013-04-21 16:39:00,
2013-04-21 11:44:00,41.4,36.6,30.19,SSE,157,13.0,13.0,83,0.00,,,0.01,Wunderground v.1.15,2013-04-21 16:44:00,
2013-04-21 11:49:00,41.7,36.9,30.18,ESE,111,8.0,21.0,83,0.00,,,0.01,Wunderground v.1.15,2013-04-21 16:49:00,
2013-04-21 11:54:00,42.2,37.1,30.18,SSE,151,12.0,18.0,82,0.00,,,0.01,Wunderground v.1.15,2013-04-21 16:54:00,
2013-04-21 11:59:00,42.7,37.3,30.18,SSE,147,6.0,18.0,81,0.00,,,0.01,Wunderground v.1.15,2013-04-21 16:59:00,
2013-04-21 12:05:00,43.1,37.3,30.17,South,187,15.0,21.0,80,0.00,,,0.01,Wunderground v.1.15,2013-04-21 17:05:00,
2013-04-21 12:10:00,43.4,37.6,30.17,SE,139,12.0,21.0,80,0.00,,,0.01,Wunderground v.1.15,2013-04-21 17:10:00,
2013-04-21 12:15:00,43.5,37.4,30.16,SE,144,19.0,20.0,79,0.00,,,0.01,Wunderground v.1.15,2013-04-21 17:15:00,
2013-04-21 12:20:00,43.8,37.4,30.16,SE,132,15.0,20.0,78,0.00,,,0.01,Wunderground v.1.15,2013-04-21 17:20:00,
2013-04-21 12:25:00,44.0,37.3,30.16,SSE,157,7.0,19.0,77,0.00,,,0.01,Wunderground v.1.15,2013-04-21 17:25:00,
2013-04-21 12:30:00,44.2,37.4,30.15,ESE,115,7.0,21.0,77,0.00,,,0.01,Wunderground v.1.15,2013-04-21 17:30:00,
2013-04-21 12:36:00,44.7,37.9,30.15,South,173,11.0,12.0,77,0.00,,,0.01,Wunderground v.1.15,2013-04-21 17:36:00,
2013-04-21 12:41:00,44.9,37.5,30.15,SE,132,19.0,23.0,75,0.00,,,0.01,Wunderground v.1.15,2013-04-21 17:41:00,
2013-04-21 12:46:00,44.9,37.8,30.15,SSW,209,0.0,13.0,76,0.00,,,0.01,Wunderground v.1.15,2013-04-21 17:46:00,
2013-04-21 12:51:00,45.2,37.7,30.15,South,177,11.0,24.0,75,0.00,,,0.01,Wunderground v.1.15,2013-04-21 17:51:00,
2013-04-21 12:56:00,44.9,37.5,30.15,SSE,151,7.0,16.0,75,0.00,,,0.01,Wunderground v.1.15,2013-04-21 17:56:00,
2013-04-21 13:01:00,44.9,37.5,30.14,SE,136,11.0,22.0,75,0.00,,,0.01,Wunderground v.1.15,2013-04-21 18:01:00,
2013-04-21 13:06:00,44.8,37.7,30.14,SE,138,8.0,14.0,76,0.00,,,0.01,Wunderground v.1.15,2013-04-21 18:06:00,
2013-04-21 13:11:00,44.7,37.6,30.14,South,186,9.0,20.0,76,0.00,,,0.01,Wunderground v.1.15,2013-04-21 18:11:00,
2013-04-21 13:16:00,44.7,37.6,30.14,ESE,116,4.0,19.0,76,0.00,,,0.01,Wunderground v.1.15,2013-04-21 18:16:00,
2013-04-21 13:21:00,44.6,37.8,30.13,SE,139,18.0,18.0,77,0.00,,,0.01,Wunderground v.1.15,2013-04-21 18:21:00,
2013-04-21 13:26:00,44.5,37.7,30.13,SE,132,18.0,20.0,77,0.00,,,0.01,Wunderground v.1.15,2013-04-21 18:26:00,
2013-04-21 13:32:00,44.7,37.9,30.13,SE,146,8.0,10.0,77,0.00,,,0.01,Wunderground v.1.15,2013-04-21 18:32:00,
2013-04-21 13:37:00,44.8,38.0,30.12,SE,143,9.0,15.0,77,0.00,,,0.01,Wunderground v.1.15,2013-04-21 18:37:00,
2013-04-21 13:42:00,44.9,38.1,30.12,SSE,157,0.0,10.0,77,0.00,,,0.01,Wunderground v.1.15,2013-04-21 18:42:00,
2013-04-21 13:47:00,45.0,38.2,30.12,SE,128,7.0,16.0,77,0.00,,,0.01,Wunderground v.1.15,2013-04-21 18:47:00,
2013-04-21 13:52:00,45.2,38.4,30.11,SSE,155,12.0,12.0,77,0.00,,,0.01,Wunderground v.1.15,2013-04-21 18:52:00,
2013-04-21 13:57:00,45.5,38.7,30.11,ESE,115,11.0,21.0,77,0.00,,,0.01,Wunderground v.1.15,2013-04-21 18:57:00,
2013-04-21 14:02:00,45.7,38.9,30.11,SE,141,10.0,10.0,77,0.00,,,0.01,Wunderground v.1.15,2013-04-21 19:02:00,
2013-04-21 14:07:00,46.2,39.1,30.11,SSE,151,4.0,15.0,76,0.00,,,0.01,Wunderground v.1.15,2013-04-21 19:07:00,
2013-04-21 14:12:00,46.3,39.1,30.10,South,183,7.0,10.0,76,0.00,,,0.01,Wunderground v.1.15,2013-04-21 19:12:00,
2013-04-21 14:17:00,46.2,39.1,30.10,South,184,5.0,19.0,76,0.00,,,0.01,Wunderground v.1.15,2013-04-21 19:17:00,
2013-04-21 14:22:00,46.4,39.2,30.10,SSE,150,11.0,11.0,76,0.00,,,0.01,Wunderground v.1.15,2013-04-21 19:22:00,
2013-04-21 14:28:00,46.5,39.3,30.10,SSW,195,11.0,18.0,76,0.00,,,0.01,Wunderground v.1.15,2013-04-21 19:28:00,
2013-04-21 14:33:00,46.5,39.3,30.09,SE,144,5.0,11.0,76,0.00,,,0.01,Wunderground v.1.15,2013-04-21 19:33:00,
2013-04-21 14:38:00,46.6,39.8,30.09,SSE,158,9.0,21.0,77,0.00,,,0.01,Wunderground v.1.15,2013-04-21 19:38:00,
2013-04-21 14:43:00,46.8,39.6,30.09,ESE,121,7.0,13.0,76,0.00,,,0.01,Wunderground v.1.15,2013-04-21 19:43:00,
2013-04-21 14:48:00,47.2,40.4,30.09,SSE,163,12.0,15.0,77,0.00,,,0.01,Wunderground v.1.15,2013-04-21 19:48:00,
2013-04-21 14:53:00,47.3,40.1,30.09,SE,141,11.0,15.0,76,0.00,,,0.01,Wunderground v.1.15,2013-04-21 19:53:00,
2013-04-21 14:58:00,47.1,39.9,30.09,NE,53,2.0,15.0,76,0.00,,,0.01,Wunderground v.1.15,2013-04-21 19:58:00,
2013-04-21 15:03:00,47.0,40.2,30.09,ESE,105,6.0,11.0,77,0.00,,,0.01,Wunderground v.1.15,2013-04-21 20:03:00,
2013-04-21 15:08:00,47.0,40.2,30.08,ESE,121,6.0,14.0,77,0.00,,,0.01,Wunderground v.1.15,2013-04-21 20:08:00,
2013-04-21 15:14:00,47.2,40.4,30.08,SSE,154,6.0,8.0,77,0.00,,,0.01,Wunderground v.1.15,2013-04-21 20:14:00,
2013-04-21 15:19:00,47.2,40.4,30.08,SSE,156,4.0,10.0,77,0.00,,,0.01,Wunderground v.1.15,2013-04-21 20:19:00,
2013-04-21 15:24:00,47.3,40.5,30.08,SSE,153,8.0,15.0,77,0.00,,,0.01,Wunderground v.1.15,2013-04-21 20:24:00,
2013-04-21 15:29:00,47.3,40.5,30.08,SSE,153,11.0,15.0,77,0.00,,,0.01,Wunderground v.1.15,2013-04-21 20:29:00,
2013-04-21 15:34:00,47.3,40.8,30.08,SE,138,4.0,11.0,78,0.00,,,0.01,Wunderground v.1.15,2013-04-21 20:34:00,
2013-04-21 15:39:00,47.4,40.6,30.08,SSE,168,5.0,14.0,77,0.00,,,0.01,Wunderground v.1.15,2013-04-21 20:39:00,
2013-04-21 15:44:00,47.4,40.6,30.08,SSE,156,2.0,13.0,77,0.00,,,0.01,Wunderground v.1.15,2013-04-21 20:44:00,
2013-04-21 15:49:00,47.5,41.0,30.08,SSW,193,6.0,13.0,78,0.00,,,0.01,Wunderground v.1.15,2013-04-21 20:49:00,
2013-04-21 15:54:00,47.4,41.2,30.08,ENE,77,5.0,9.0,79,0.00,,,0.01,Wunderground v.1.15,2013-04-21 20:54:00,
2013-04-21 15:59:00,47.3,41.4,30.08,ESE,106,5.0,11.0,80,0.00,,,0.01,Wunderground v.1.15,2013-04-21 20:59:00,
2013-04-21 16:04:00,47.2,41.3,30.07,SE,138,12.0,15.0,80,0.00,,,0.01,Wunderground v.1.15,2013-04-21 21:04:00,
2013-04-21 16:10:00,47.0,41.8,30.07,SE,126,7.0,15.0,82,0.00,,,0.01,Wunderground v.1.15,2013-04-21 21:10:00,
2013-04-21 16:15:00,46.9,42.0,30.06,SE,137,6.0,7.0,83,0.00,,,0.01,Wunderground v.1.15,2013-04-21 21:15:00,
2013-04-21 16:20:00,46.6,41.7,30.06,ESE,109,5.0,10.0,83,0.00,,,0.01,Wunderground v.1.15,2013-04-21 21:20:00,
2013-04-21 16:25:00,46.5,41.9,30.06,ESE,119,5.0,8.0,84,0.00,,,0.01,Wunderground v.1.15,2013-04-21 21:25:00,
2013-04-21 16:30:00,46.5,41.9,30.06,SSE,147,11.0,11.0,84,0.00,,,0.02,Wunderground v.1.15,2013-04-21 21:30:00,
2013-04-21 16:35:00,46.5,41.9,30.05,SE,131,6.0,8.0,84,0.00,,,0.02,Wunderground v.1.15,2013-04-21 21:35:00,
2013-04-21 16:40:00,46.5,42.2,30.04,SSE,158,6.0,11.0,85,0.00,,,0.02,Wunderground v.1.15,2013-04-21 21:40:00,
2013-04-21 16:46:00,46.6,42.6,30.04,SSE,152,5.0,7.0,86,0.00,,,0.02,Wunderground v.1.15,2013-04-21 21:46:00,
2013-04-21 16:51:00,46.5,42.5,30.04,East,92,6.0,8.0,86,0.00,,,0.02,Wunderground v.1.15,2013-04-21 21:51:00,
2013-04-21 16:56:00,46.4,42.7,30.04,SE,130,7.0,7.0,87,0.00,,,0.03,Wunderground v.1.15,2013-04-21 21:56:00,
2013-04-21 17:01:00,46.2,43.1,30.04,SE,125,2.0,7.0,89,0.00,,,0.03,Wunderground v.1.15,2013-04-21 22:01:00,
2013-04-21 17:06:00,46.0,43.2,30.04,ESE,113,4.0,6.0,90,0.08,,,0.04,Wunderground v.1.15,2013-04-21 22:06:00,
2013-04-21 17:11:00,45.9,43.4,30.03,SE,131,4.0,4.0,91,0.10,,,0.05,Wunderground v.1.15,2013-04-21 22:11:00,
2013-04-21 17:16:00,45.8,43.6,30.03,SE,139,2.0,6.0,92,0.08,,,0.06,Wunderground v.1.15,2013-04-21 22:16:00,
2013-04-21 17:21:00,45.7,43.5,30.03,SE,142,5.0,9.0,92,0.08,,,0.06,Wunderground v.1.15,2013-04-21 22:21:00,
2013-04-21 17:27:00,45.7,43.8,30.03,SSE,155,2.0,9.0,93,0.06,,,0.07,Wunderground v.1.15,2013-04-21 22:27:00,
2013-04-21 17:32:00,45.6,43.7,30.03,SSE,154,4.0,5.0,93,0.06,,,0.07,Wunderground v.1.15,2013-04-21 22:32:00,
2013-04-21 17:37:00,45.5,43.9,30.03,SSE,157,7.0,8.0,94,0.08,,,0.08,Wunderground v.1.15,2013-04-21 22:37:00,
2013-04-21 17:42:00,45.4,43.8,30.03,SSE,151,6.0,7.0,94,0.10,,,0.09,Wunderground v.1.15,2013-04-21 22:42:00,
2013-04-21 17:47:00,45.3,43.7,30.04,SSE,165,6.0,7.0,94,0.10,,,0.10,Wunderground v.1.15,2013-04-21 22:47:00,
2013-04-21 17:53:00,45.3,44.0,30.04,SE,145,6.0,10.0,95,0.08,,,0.10,Wunderground v.1.15,2013-04-21 22:53:00,
2013-04-21 17:58:00,45.3,44.0,30.04,SSE,166,0.0,10.0,95,0.06,,,0.11,Wunderground v.1.15,2013-04-21 22:58:00,
2013-04-21 18:03:00,45.4,44.1,30.03,South,180,6.0,7.0,95,0.08,,,0.12,Wunderground v.1.15,2013-04-21 23:03:00,
2013-04-21 18:09:00,45.6,44.5,30.03,South,171,7.0,8.0,96,0.08,,,0.12,Wunderground v.1.15,2013-04-21 23:09:00,
2013-04-21 18:14:00,45.5,44.4,30.06,WNW,283,5.0,13.0,96,0.29,,,0.13,Wunderground v.1.15,2013-04-21 23:14:00,
2013-04-21 18:19:00,45.0,43.9,30.04,West,259,0.0,13.0,96,0.17,,,0.17,Wunderground v.1.15,2013-04-21 23:19:00,
2013-04-21 18:24:00,44.7,43.6,30.05,West,259,1.0,4.0,96,0.08,,,0.18,Wunderground v.1.15,2013-04-21 23:24:00,
2013-04-21 18:29:00,44.6,43.5,30.04,West,259,2.0,4.0,96,0.08,,,0.18,Wunderground v.1.15,2013-04-21 23:29:00,
2013-04-21 18:34:00,44.6,43.5,30.04,West,259,1.0,1.0,96,0.05,,,0.18,Wunderground v.1.15,2013-04-21 23:34:00,
2013-04-21 18:39:00,44.7,43.9,30.04,West,259,0.0,1.0,97,0.04,,,0.18,Wunderground v.1.15,2013-04-21 23:39:00,
2013-04-21 18:44:00,44.8,44.0,30.03,West,259,0.0,0.0,97,0.00,,,0.18,Wunderground v.1.15,2013-04-21 23:44:00,
2013-04-21 18:49:00,44.9,44.1,30.04,West,259,0.0,0.0,97,0.00,,,0.18,Wunderground v.1.15,2013-04-21 23:49:00,
2013-04-21 18:54:00,45.1,44.3,30.04,WSW,257,0.0,3.0,97,0.00,,,0.18,Wunderground v.1.15,2013-04-21 23:54:00,
2013-04-21 18:59:00,45.3,44.5,30.04,WSW,257,0.0,3.0,97,0.00,,,0.18,Wunderground v.1.15,2013-04-21 23:59:00,
2013-04-21 19:05:00,45.5,44.7,30.04,WSW,257,0.0,0.0,97,0.00,,,0.18,Wunderground v.1.15,2013-04-22 00:05:00,
2013-04-21 19:10:00,45.6,45.1,30.04,WSW,257,0.0,2.0,98,0.00,,,0.18,Wunderground v.1.15,2013-04-22 00:10:00,
2013-04-21 19:15:00,45.6,44.8,30.04,WSW,257,0.0,1.0,97,0.00,,,0.18,Wunderground v.1.15,2013-04-22 00:15:00,
2013-04-21 19:20:00,45.6,44.8,30.05,WSW,257,0.0,2.0,97,0.00,,,0.18,Wunderground v.1.15,2013-04-22 00:20:00,
2013-04-21 19:25:00,45.7,44.9,30.05,WSW,252,2.0,3.0,97,0.00,,,0.18,Wunderground v.1.15,2013-04-22 00:25:00,
2013-04-21 19:30:00,45.6,44.8,30.05,WSW,243,5.0,8.0,97,0.00,,,0.18,Wunderground v.1.15,2013-04-22 00:30:00,
2013-04-21 19:35:00,45.6,44.8,30.05,SW,229,2.0,6.0,97,0.00,,,0.18,Wunderground v.1.15,2013-04-22 00:35:00,
2013-04-21 19:40:00,45.6,44.8,30.06,WSW,239,6.0,7.0,97,0.00,,,0.18,Wunderground v.1.15,2013-04-22 00:40:00,
2013-04-21 19:46:00,45.7,45.2,30.06,SW,232,3.0,7.0,98,0.00,,,0.18,Wunderground v.1.15,2013-04-22 00:46:00,
2013-04-21 19:51:00,45.7,44.9,30.06,WSW,238,4.0,7.0,97,0.00,,,0.18,Wunderground v.1.15,2013-04-22 00:51:00,
2013-04-21 19:56:00,45.6,44.8,30.06,WSW,245,2.0,6.0,97,0.00,,,0.18,Wunderground v.1.15,2013-04-22 00:56:00,
2013-04-21 20:01:00,45.5,44.7,30.07,West,271,5.0,9.0,97,0.00,,,0.18,Wunderground v.1.15,2013-04-22 01:01:00,
2013-04-21 20:06:00,45.5,44.7,30.07,WSW,254,6.0,11.0,97,0.00,,,0.18,Wunderground v.1.15,2013-04-22 01:06:00,
2013-04-21 20:11:00,45.4,44.6,30.07,WSW,257,6.0,6.0,97,0.00,,,0.18,Wunderground v.1.15,2013-04-22 01:11:00,
2013-04-21 20:17:00,45.2,44.4,30.08,West,263,6.0,7.0,97,0.00,,,0.18,Wunderground v.1.15,2013-04-22 01:17:00,
2013-04-21 20:22:00,45.1,44.3,30.08,West,263,0.0,3.0,97,0.00,,,0.18,Wunderground v.1.15,2013-04-22 01:22:00,
2013-04-21 20:27:00,44.9,44.1,30.08,West,263,0.0,4.0,97,0.00,,,0.18,Wunderground v.1.15,2013-04-22 01:27:00,
2013-04-21 20:32:00,44.7,43.9,30.08,West,270,3.0,7.0,97,0.00,,,0.18,Wunderground v.1.15,2013-04-22 01:32:00,
2013-04-21 20:37:00,44.5,43.7,30.08,West,270,0.0,7.0,97,0.00,,,0.18,Wunderground v.1.15,2013-04-22 01:37:00,
2013-04-21 20:43:00,44.3,43.5,30.09,West,275,1.0,5.0,97,0.00,,,0.18,Wunderground v.1.15,2013-04-22 01:43:00,
2013-04-21 20:48:00,44.1,43.3,30.09,West,261,4.0,6.0,97,0.00,,,0.18,Wunderground v.1.15,2013-04-22 01:48:00,
2013-04-21 20:53:00,43.7,42.9,30.10,West,275,6.0,8.0,97,0.00,,,0.18,Wunderground v.1.15,2013-04-22 01:53:00,
2013-04-21 20:58:00,43.3,42.2,30.10,West,275,3.0,8.0,96,0.00,,,0.18,Wunderground v.1.15,2013-04-22 01:58:00,
2013-04-21 21:03:00,43.1,42.0,30.10,West,266,3.0,6.0,96,0.00,,,0.18,Wunderground v.1.15,2013-04-22 02:03:00,
2013-04-21 21:08:00,42.8,41.7,30.10,West,272,1.0,7.0,96,0.00,,,0.18,Wunderground v.1.15,2013-04-22 02:08:00,
2013-04-21 21:13:00,42.5,41.4,30.11,West,271,3.0,5.0,96,0.00,,,0.18,Wunderground v.1.15,2013-04-22 02:13:00,
2013-04-21 21:18:00,42.4,41.3,30.11,WNW,288,0.0,7.0,96,0.00,,,0.18,Wunderground v.1.15,2013-04-22 02:18:00,
2013-04-21 21:23:00,42.0,40.9,30.11,West,259,5.0,5.0,96,0.00,,,0.18,Wunderground v.1.15,2013-04-22 02:23:00,
2013-04-21 21:28:00,41.9,40.8,30.11,West,262,5.0,5.0,96,0.00,,,0.18,Wunderground v.1.15,2013-04-22 02:28:00,
2013-04-21 21:33:00,41.8,40.7,30.12,West,270,0.0,3.0,96,0.00,,,0.18,Wunderground v.1.15,2013-04-22 02:33:00,
2013-04-21 21:38:00,41.5,40.4,30.12,WNW,300,5.0,6.0,96,0.00,,,0.18,Wunderground v.1.15,2013-04-22 02:38:00,
2013-04-21 21:43:00,41.3,40.2,30.12,West,277,3.0,3.0,96,0.00,,,0.18,Wunderground v.1.15,2013-04-22 02:43:00,
2013-04-21 21:49:00,41.1,40.0,30.13,West,266,3.0,7.0,96,0.00,,,0.18,Wunderground v.1.15,2013-04-22 02:49:00,
2013-04-21 21:54:00,40.9,39.8,30.13,West,267,2.0,5.0,96,0.00,,,0.18,Wunderground v.1.15,2013-04-22 02:54:00,
2013-04-21 21:59:00,40.7,39.6,30.13,WNW,291,2.0,6.0,96,0.00,,,0.18,Wunderground v.1.15,2013-04-22 02:59:00,
2013-04-21 22:04:00,40.5,39.4,30.14,WNW,287,4.0,4.0,96,0.00,,,0.18,Wunderground v.1.15,2013-04-22 03:04:00,
2013-04-21 22:09:00,40.4,39.4,30.14,West,272,0.0,4.0,96,0.00,,,0.18,Wunderground v.1.15,2013-04-22 03:09:00,
2013-04-21 22:14:00,40.2,39.2,30.14,WNW,286,5.0,5.0,96,0.00,,,0.18,Wunderground v.1.15,2013-04-22 03:14:00,
2013-04-21 22:19:00,40.1,39.1,30.14,WNW,285,3.0,5.0,96,0.00,,,0.18,Wunderground v.1.15,2013-04-22 03:19:00,
2013-04-21 22:24:00,40.0,39.0,30.14,WNW,288,0.0,3.0,96,0.00,,,0.18,Wunderground v.1.15,2013-04-22 03:24:00,
2013-04-21 22:29:00,39.9,38.9,30.14,WNW,288,0.0,4.0,96,0.00,,,0.18,Wunderground v.1.15,2013-04-22 03:29:00,
2013-04-21 22:34:00,39.8,38.8,30.14,WNW,288,0.0,2.0,96,0.00,,,0.18,Wunderground v.1.15,2013-04-22 03:34:00,
2013-04-21 22:40:00,39.8,38.8,30.14,WNW,291,2.0,4.0,96,0.00,,,0.18,Wunderground v.1.15,2013-04-22 03:40:00,
2013-04-21 22:45:00,39.7,38.7,30.15,WNW,292,1.0,3.0,96,0.00,,,0.18,Wunderground v.1.15,2013-04-22 03:45:00,
2013-04-21 22:50:00,39.6,38.6,30.15,WNW,298,7.0,7.0,96,0.00,,,0.18,Wunderground v.1.15,2013-04-22 03:50:00,
2013-04-21 22:55:00,39.6,38.6,30.15,NW,304,2.0,6.0,96,0.00,,,0.18,Wunderground v.1.15,2013-04-22 03:55:00,
2013-04-21 23:00:00,39.5,38.5,30.15,WNW,290,1.0,7.0,96,0.00,,,0.18,Wunderground v.1.15,2013-04-22 04:00:00,
2013-04-21 23:01:00,39.5,38.5,30.15,WNW,290,2.0,7.0,96,0.00,,,0.18,Wunderground v.1.15,2013-04-22 04:01:00,
2013-04-21 23:02:00,39.5,38.5,30.15,WNW,292,1.0,6.0,96,0.00,,,0.18,Wunderground v.1.15,2013-04-22 04:02:00,
2013-04-21 23:03:00,39.5,38.5,30.15,WNW,292,4.0,6.0,96,0.00,,,0.18,Wunderground v.1.15,2013-04-22 04:03:00,
2013-04-21 23:08:00,39.5,38.5,30.15,NW,308,0.0,6.0,96,0.00,,,0.18,Wunderground v.1.15,2013-04-22 04:08:00,
2013-04-21 23:13:00,39.4,38.4,30.15,WNW,286,0.0,2.0,96,0.00,,,0.18,Wunderground v.1.15,2013-04-22 04:13:00,
2013-04-21 23:18:00,39.3,38.3,30.16,WNW,286,2.0,4.0,96,0.00,,,0.18,Wunderground v.1.15,2013-04-22 04:18:00,
2013-04-21 23:23:00,39.2,38.2,30.16,WNW,284,2.0,2.0,96,0.00,,,0.18,Wunderground v.1.15,2013-04-22 04:23:00,
2013-04-21 23:28:00,39.2,38.2,30.16,WNW,287,0.0,3.0,96,0.00,,,0.18,Wunderground v.1.15,2013-04-22 04:28:00,
2013-04-21 23:33:00,39.1,38.1,30.16,WNW,288,0.0,3.0,96,0.00,,,0.18,Wunderground v.1.15,2013-04-22 04:33:00,
2013-04-21 23:38:00,39.0,38.0,30.16,WNW,288,0.0,3.0,96,0.00,,,0.18,Wunderground v.1.15,2013-04-22 04:38:00,
2013-04-21 23:43:00,39.0,38.0,30.16,West,271,0.0,2.0,96,0.00,,,0.18,Wunderground v.1.15,2013-04-22 04:43:00,
2013-04-21 23:48:00,38.9,37.9,30.16,WNW,292,0.0,5.0,96,0.00,,,0.18,Wunderground v.1.15,2013-04-22 04:48:00,
2013-04-21 23:54:00,38.8,37.8,30.17,WNW,303,3.0,5.0,96,0.00,,,0.18,Wunderground v.1.15,2013-04-22 04:54:00,
2013-04-21 23:59:00,38.7,37.7,30.17,NW,307,0.0,7.0,96,0.00,,,0.18,Wunderground v.1.15,2013-04-22 04:59:00,